createdAt,value
2023-10-15T00:01:00.565Z,0.93
2023-10-15T00:03:27.281Z,1.02
2023-10-15T00:05:53.921Z,0.82
2023-10-15T00:08:20.457Z,0.50
2023-10-15T00:10:47.342Z,1.10
2023-10-15T00:13:14.631Z,0.95
2023-10-15T00:15:41.493Z,0.82
2023-10-15T00:18:11.099Z,1.00
2023-10-15T00:20:39.366Z,1.10
2023-10-15T00:23:06.422Z,1.33
2023-10-15T00:25:38.389Z,1.00
2023-10-15T00:30:34.357Z,0.93
2023-10-15T00:33:04.817Z,1.33
2023-10-15T00:35:35.613Z,1.13
2023-10-15T00:38:09.007Z,0.77
2023-10-15T00:40:39.112Z,1.00
2023-10-15T00:43:06.803Z,1.67
2023-10-15T00:45:45.495Z,1.08
2023-10-15T00:48:29.219Z,1.08
2023-10-15T00:50:57.155Z,0.75
2023-10-15T00:53:28.323Z,1.10
2023-10-15T00:56:01.992Z,0.80
2023-10-15T00:58:46.439Z,0.70
2023-10-15T01:01:19.304Z,0.85
2023-10-15T01:03:53.800Z,1.38
2023-10-15T01:06:31.215Z,0.77
2023-10-15T01:09:10.066Z,1.13
2023-10-15T01:12:01.754Z,0.80
2023-10-15T01:14:33.446Z,1.40
2023-10-15T01:17:01.533Z,1.55
2023-10-15T01:19:34.318Z,0.70
2023-10-15T01:22:05.569Z,0.85
2023-10-15T01:24:34.188Z,1.00
2023-10-15T01:27:05.933Z,0.82
2023-10-15T01:32:11.760Z,0.63
2023-10-15T01:34:39.477Z,1.13
2023-10-15T01:37:16.099Z,1.20
2023-10-15T01:39:48.360Z,0.90
2023-10-15T01:42:28.344Z,1.27
2023-10-15T01:45:08.557Z,1.23
2023-10-15T01:47:37.428Z,1.10
2023-10-15T01:50:09.773Z,1.23
2023-10-15T01:52:43.375Z,1.23
2023-10-15T01:55:10.473Z,1.38
2023-10-15T01:57:37.780Z,1.30
2023-10-15T02:00:18.208Z,1.70
2023-10-15T02:02:45.151Z,1.15
2023-10-15T02:05:30.690Z,1.17
2023-10-15T02:07:57.780Z,1.00
2023-10-15T02:10:24.946Z,1.20
2023-10-15T02:13:06.392Z,1.13
2023-10-15T02:15:34.615Z,1.20
2023-10-15T02:18:01.382Z,1.13
2023-10-15T02:20:45.359Z,1.25
2023-10-15T02:23:13.007Z,1.20
2023-10-15T02:25:59.220Z,1.10
2023-10-15T02:28:27.857Z,1.67
2023-10-15T02:31:01.451Z,0.82
2023-10-15T02:33:28.266Z,0.93
2023-10-15T02:36:15.200Z,1.10
2023-10-15T02:38:53.429Z,1.30
2023-10-15T02:41:32.384Z,1.48
2023-10-15T02:43:59.271Z,0.93
2023-10-15T02:46:37.525Z,1.15
2023-10-15T02:49:07.908Z,1.25
2023-10-15T02:51:38.744Z,1.48
2023-10-15T02:54:26.180Z,1.10
2023-10-15T02:56:57.422Z,1.42
2023-10-15T02:59:25.128Z,1.10
2023-10-15T03:01:58.080Z,1.67
2023-10-15T03:04:34.266Z,0.90
2023-10-15T03:07:19.241Z,1.00
2023-10-15T03:09:50.146Z,0.98
2023-10-15T03:12:19.244Z,0.88
2023-10-15T03:14:46.647Z,0.93
2023-10-15T03:17:25.635Z,1.15
2023-10-15T03:19:55.982Z,0.90
2023-10-15T03:22:31.468Z,0.88
2023-10-15T03:25:00.637Z,1.08
2023-10-15T03:27:30.174Z,1.10
2023-10-15T03:29:59.611Z,1.05
2023-10-15T03:32:32.635Z,0.75
2023-10-15T03:35:18.219Z,1.35
2023-10-15T03:37:49.063Z,1.60
2023-10-15T03:40:32.170Z,0.88
2023-10-15T03:43:07.623Z,0.90
2023-10-15T03:45:34.873Z,1.00
2023-10-15T03:48:02.144Z,1.48
2023-10-15T03:50:30.811Z,1.00
2023-10-15T03:52:57.541Z,1.15
2023-10-15T03:55:25.179Z,0.70
2023-10-15T03:57:55.015Z,1.05
2023-10-15T04:00:36.266Z,1.40
2023-10-15T04:03:19.829Z,0.80
2023-10-15T04:06:02.150Z,1.00
2023-10-15T04:08:29.048Z,1.05
2023-10-15T04:10:56.595Z,1.45
2023-10-15T04:13:23.393Z,0.77
2023-10-15T04:15:50.725Z,1.00
2023-10-15T04:18:18.315Z,1.08
2023-10-15T04:20:45.021Z,0.70
2023-10-15T04:23:13.261Z,0.90
2023-10-15T04:25:40.644Z,0.70
2023-10-15T04:28:15.497Z,1.30
2023-10-15T04:30:42.272Z,1.13
2023-10-15T04:33:14.601Z,0.88
2023-10-15T04:35:44.325Z,0.88
2023-10-15T04:38:22.017Z,1.00
2023-10-15T04:40:55.038Z,1.85
2023-10-15T04:43:26.633Z,0.50
2023-10-15T04:48:28.959Z,0.80
2023-10-15T04:50:58.243Z,0.70
2023-10-15T04:53:31.909Z,0.88
2023-10-15T04:56:01.188Z,1.00
2023-10-15T04:58:30.760Z,0.93
2023-10-15T05:01:00.390Z,0.85
2023-10-15T05:03:27.130Z,0.63
2023-10-15T05:05:56.649Z,1.17
2023-10-15T05:08:25.823Z,1.30
2023-10-15T05:10:52.952Z,1.13
2023-10-15T05:13:20.461Z,1.95
2023-10-15T05:15:51.000Z,0.88
2023-10-15T05:18:20.065Z,0.70
2023-10-15T05:20:51.684Z,1.10
2023-10-15T05:23:19.756Z,0.90
2023-10-15T05:25:46.682Z,1.17
2023-10-15T05:28:15.871Z,0.90
2023-10-15T05:30:43.555Z,0.95
2023-10-15T05:33:10.457Z,1.20
2023-10-15T05:35:38.957Z,1.00
2023-10-15T05:38:09.774Z,1.02
2023-10-15T05:40:38.174Z,0.90
2023-10-15T05:43:06.196Z,1.02
2023-10-15T05:45:33.009Z,0.88
2023-10-15T05:47:59.890Z,1.30
2023-10-15T05:50:27.168Z,0.88
2023-10-15T05:52:53.910Z,0.95
2023-10-15T05:55:21.124Z,0.95
2023-10-15T05:57:48.585Z,0.93
2023-10-15T06:00:27.693Z,1.48
2023-10-15T06:02:55.425Z,1.02
2023-10-15T06:05:22.811Z,1.75
2023-10-15T06:07:56.099Z,0.77
2023-10-15T06:10:24.121Z,1.45
2023-10-15T06:12:50.828Z,1.08
2023-10-15T06:15:19.992Z,1.58
2023-10-15T06:17:48.892Z,1.15
2023-10-15T06:20:15.974Z,1.25
2023-10-15T06:22:47.728Z,1.30
2023-10-15T06:25:18.153Z,1.20
2023-10-15T06:27:45.039Z,0.90
2023-10-15T06:30:16.320Z,1.35
2023-10-15T06:32:44.828Z,1.10
2023-10-15T06:35:15.862Z,0.88
2023-10-15T06:37:43.016Z,1.10
2023-10-15T06:40:21.567Z,1.92
2023-10-15T06:42:49.454Z,1.05
2023-10-15T06:45:20.215Z,1.40
2023-10-15T06:47:48.541Z,1.70
2023-10-15T06:50:15.752Z,1.02
2023-10-15T06:52:43.768Z,1.25
2023-10-15T06:55:14.558Z,1.20
2023-10-15T06:57:42.107Z,1.40
2023-10-15T07:00:13.720Z,1.02
2023-10-15T07:05:07.381Z,1.15
2023-10-15T07:07:35.106Z,1.05
2023-10-15T07:10:05.815Z,1.23
2023-10-15T07:12:33.395Z,1.10
2023-10-15T07:15:00.413Z,0.98
2023-10-15T07:17:27.261Z,1.00
2023-10-15T07:19:54.198Z,1.10
2023-10-15T07:22:21.962Z,1.05
2023-10-15T07:24:48.746Z,1.33
2023-10-15T07:27:16.359Z,1.30
2023-10-15T07:29:43.018Z,0.98
2023-10-15T07:32:09.724Z,1.55
2023-10-15T07:34:36.491Z,1.38
2023-10-15T07:37:03.128Z,1.02
2023-10-15T07:39:29.785Z,1.15
2023-10-15T07:41:56.429Z,1.40
2023-10-15T07:44:23.138Z,1.50
2023-10-15T07:46:53.950Z,1.45
2023-10-15T07:49:21.434Z,1.30
2023-10-15T07:51:48.869Z,2.47
2023-10-15T07:54:16.112Z,1.13
2023-10-15T07:56:42.823Z,2.42
2023-10-15T07:59:09.668Z,1.80
2023-10-15T08:01:39.389Z,1.73
2023-10-15T08:04:07.804Z,1.08
2023-10-15T08:06:35.446Z,1.42
2023-10-15T08:09:02.420Z,1.50
2023-10-15T08:11:29.047Z,1.50
2023-10-15T08:13:55.911Z,1.77
2023-10-15T08:16:23.435Z,1.50
2023-10-15T08:18:50.461Z,1.40
2023-10-15T08:21:17.232Z,2.15
2023-10-15T08:23:44.299Z,1.35
2023-10-15T08:26:11.465Z,1.35
2023-10-15T08:28:38.988Z,1.42
2023-10-15T08:31:05.894Z,1.38
2023-10-15T08:33:32.592Z,1.60
2023-10-15T08:36:01.656Z,1.45
2023-10-15T08:38:28.292Z,1.70
2023-10-15T08:40:56.700Z,1.30
2023-10-15T08:43:25.999Z,1.20
2023-10-15T08:45:53.496Z,1.40
2023-10-15T08:48:20.683Z,0.75
2023-10-15T08:50:47.660Z,1.13
2023-10-15T08:53:15.039Z,1.10
2023-10-15T08:55:44.848Z,1.05
2023-10-15T08:58:12.886Z,1.45
2023-10-15T09:00:40.667Z,0.80
2023-10-15T09:03:07.655Z,1.67
2023-10-15T09:05:35.794Z,1.02
2023-10-15T09:08:07.900Z,0.98
2023-10-15T09:10:43.178Z,1.52
2023-10-15T09:13:15.629Z,0.80
2023-10-15T09:15:53.793Z,0.88
2023-10-15T09:18:20.737Z,0.90
2023-10-15T09:20:51.873Z,1.55
2023-10-15T09:25:54.570Z,1.23
2023-10-15T09:28:21.805Z,1.67
2023-10-15T09:30:49.778Z,0.60
2023-10-15T09:33:17.990Z,0.63
2023-10-15T09:35:44.799Z,0.50
2023-10-15T09:38:18.458Z,0.90
2023-10-15T09:40:45.924Z,0.60
2023-10-15T09:43:14.473Z,0.50
2023-10-15T09:45:42.810Z,0.70
2023-10-15T09:48:12.601Z,0.90
2023-10-15T09:50:39.758Z,0.77
2023-10-15T09:53:13.939Z,0.75
2023-10-15T09:55:42.108Z,0.82
2023-10-15T09:58:12.642Z,0.50
2023-10-15T10:00:56.019Z,1.00
2023-10-15T10:03:51.011Z,0.55
2023-10-15T10:06:43.708Z,0.70
2023-10-15T10:09:43.424Z,1.02
2023-10-15T10:13:03.791Z,1.13
2023-10-15T10:15:40.252Z,0.90
2023-10-15T10:18:07.628Z,0.80
2023-10-15T10:20:37.640Z,1.98
2023-10-15T10:23:06.801Z,0.57
2023-10-15T10:25:41.743Z,0.55
2023-10-15T10:28:17.410Z,0.55
2023-10-15T10:30:58.731Z,0.77
2023-10-15T10:34:04.359Z,1.65
2023-10-15T10:36:32.178Z,0.73
2023-10-15T10:39:01.847Z,0.60
2023-10-15T10:41:37.262Z,0.50
2023-10-15T10:44:23.485Z,0.40
2023-10-15T10:46:57.738Z,0.60
2023-10-15T10:49:30.066Z,0.77
2023-10-15T10:52:18.076Z,0.40
2023-10-15T10:54:46.522Z,0.80
2023-10-15T10:57:13.419Z,0.82
2023-10-15T10:59:43.020Z,1.10
2023-10-15T11:02:12.745Z,0.80
2023-10-15T11:04:41.401Z,0.70
2023-10-15T11:07:10.187Z,0.70
2023-10-15T11:09:40.092Z,0.82
2023-10-15T11:12:08.367Z,0.93
2023-10-15T11:14:36.183Z,0.88
2023-10-15T11:17:04.151Z,1.98
2023-10-15T11:19:31.312Z,0.85
2023-10-15T11:21:58.336Z,0.68
2023-10-15T11:24:28.314Z,0.90
2023-10-15T11:26:59.451Z,0.60
2023-10-15T11:29:26.503Z,0.60
2023-10-15T11:31:57.068Z,0.63
2023-10-15T11:34:26.292Z,0.60
2023-10-15T11:36:57.565Z,0.90
2023-10-15T11:42:25.706Z,0.63
2023-10-15T11:44:57.107Z,0.85
2023-10-15T11:49:55.186Z,0.55
2023-10-15T11:52:23.826Z,0.65
2023-10-15T11:54:51.871Z,0.40
2023-10-15T11:57:26.384Z,0.57
2023-10-15T11:59:56.239Z,0.30
2023-10-15T12:02:25.587Z,0.95
2023-10-15T12:04:53.226Z,0.50
2023-10-15T12:07:22.787Z,0.70
2023-10-15T12:09:50.775Z,0.77
2023-10-15T12:12:19.110Z,0.60
2023-10-15T12:14:45.959Z,0.80
2023-10-15T12:17:14.143Z,0.60
2023-10-15T12:19:42.874Z,0.57
2023-10-15T12:22:15.390Z,0.70
2023-10-15T12:24:42.797Z,0.52
2023-10-15T12:27:09.391Z,0.50
2023-10-15T12:29:39.203Z,0.77
2023-10-15T12:32:09.121Z,0.60
2023-10-15T12:34:38.814Z,0.70
2023-10-15T12:37:08.699Z,0.40
2023-10-15T12:39:36.280Z,0.80
2023-10-15T12:42:06.518Z,0.88
2023-10-15T12:44:37.735Z,0.68
2023-10-15T12:47:05.166Z,0.85
2023-10-15T12:49:32.586Z,0.57
2023-10-15T12:51:59.893Z,0.60
2023-10-15T12:54:27.132Z,0.63
2023-10-15T12:56:54.556Z,0.57
2023-10-15T12:59:21.351Z,0.60
2023-10-15T13:01:48.167Z,0.63
2023-10-15T13:04:14.986Z,0.65
2023-10-15T13:06:42.634Z,0.70
2023-10-15T13:09:20.178Z,0.60
2023-10-15T13:11:47.033Z,0.68
2023-10-15T13:14:13.682Z,0.50
2023-10-15T13:16:40.420Z,0.52
2023-10-15T13:19:07.000Z,0.32
2023-10-15T13:21:33.597Z,0.55
2023-10-15T13:24:00.206Z,0.52
2023-10-15T13:26:26.853Z,0.50
2023-10-15T13:28:53.523Z,0.65
2023-10-15T13:31:20.242Z,0.68
2023-10-15T13:33:46.764Z,0.70
2023-10-15T13:36:14.761Z,0.50
2023-10-15T13:38:42.222Z,0.57
2023-10-15T13:41:11.825Z,0.30
2023-10-15T13:43:38.541Z,0.50
2023-10-15T13:46:05.449Z,1.10
2023-10-15T13:48:32.230Z,0.55
2023-10-15T13:50:58.910Z,0.65
2023-10-15T13:53:25.998Z,0.63
2023-10-15T13:55:54.139Z,0.50
2023-10-15T13:58:22.189Z,0.50
2023-10-15T14:00:48.856Z,0.80
2023-10-15T14:03:16.993Z,0.40
2023-10-15T14:05:44.669Z,0.93
2023-10-15T14:08:11.629Z,0.60
2023-10-15T14:10:38.944Z,0.70
2023-10-15T14:13:19.425Z,0.40
2023-10-15T14:15:48.077Z,0.57
2023-10-15T14:18:14.970Z,0.30
2023-10-15T14:20:41.884Z,0.32
2023-10-15T14:23:08.587Z,0.50
2023-10-15T14:25:35.338Z,0.52
2023-10-15T14:28:03.603Z,0.40
2023-10-15T14:30:30.336Z,0.40
2023-10-15T14:32:58.392Z,0.75
2023-10-15T14:35:25.211Z,0.60
2023-10-15T14:37:51.974Z,0.65
2023-10-15T14:40:18.764Z,0.43
2023-10-15T14:42:46.272Z,0.60
2023-10-15T14:45:14.046Z,0.30
2023-10-15T14:47:41.625Z,0.60
2023-10-15T14:50:08.806Z,0.40
2023-10-15T14:52:35.728Z,0.63
2023-10-15T14:55:02.448Z,0.45
2023-10-15T14:57:30.234Z,0.60
2023-10-15T14:59:56.930Z,0.40
2023-10-15T15:02:23.775Z,0.50
2023-10-15T15:04:51.034Z,0.40
2023-10-15T15:07:17.688Z,0.40
2023-10-15T15:09:45.179Z,0.43
2023-10-15T15:12:12.048Z,0.40
2023-10-15T15:14:38.630Z,0.52
2023-10-15T15:17:06.569Z,0.40
2023-10-15T15:19:33.184Z,0.57
2023-10-15T15:22:00.984Z,0.40
2023-10-15T15:24:28.171Z,0.43
2023-10-15T15:26:55.143Z,0.45
2023-10-15T15:29:22.831Z,0.63
2023-10-15T15:31:50.384Z,0.57
2023-10-15T15:34:17.172Z,0.60
2023-10-15T15:36:43.855Z,0.40
2023-10-15T15:39:10.838Z,0.80
2023-10-15T15:41:37.903Z,0.50
2023-10-15T15:44:06.204Z,0.50
2023-10-15T15:46:35.921Z,0.57
2023-10-15T15:49:05.289Z,0.30
2023-10-15T15:51:32.020Z,0.50
2023-10-15T15:53:58.637Z,0.38
2023-10-15T15:56:25.646Z,0.55
2023-10-15T15:58:53.092Z,0.38
2023-10-15T16:03:57.959Z,0.55
2023-10-15T16:06:25.930Z,0.90
2023-10-15T16:08:52.715Z,0.32
2023-10-15T16:11:19.464Z,0.30
2023-10-15T16:13:48.515Z,0.50
2023-10-15T16:16:15.833Z,0.70
2023-10-15T16:18:42.541Z,0.50
2023-10-15T16:21:09.181Z,0.90
2023-10-15T16:23:35.818Z,0.50
2023-10-15T16:26:02.734Z,0.52
2023-10-15T16:28:29.470Z,0.60
2023-10-15T16:30:56.958Z,0.52
2023-10-15T16:33:23.636Z,1.90
2023-10-15T16:35:50.292Z,1.50
2023-10-15T16:38:17.019Z,1.00
2023-10-15T16:40:43.822Z,0.68
2023-10-15T16:43:10.465Z,0.85
2023-10-15T16:45:38.634Z,1.27
2023-10-15T16:48:09.291Z,2.13
2023-10-15T16:50:36.273Z,2.37
2023-10-15T16:53:04.661Z,2.85
2023-10-15T16:55:33.330Z,2.38
2023-10-15T16:57:59.887Z,1.40
2023-10-15T17:00:26.599Z,1.30
2023-10-15T17:02:53.309Z,0.75
2023-10-15T17:05:19.923Z,0.68
2023-10-15T17:07:47.165Z,1.00
2023-10-15T17:10:13.761Z,0.80
2023-10-15T17:12:40.632Z,2.22
2023-10-15T17:15:12.777Z,1.67
2023-10-15T17:17:43.499Z,1.52
2023-10-15T17:20:11.556Z,1.75
2023-10-15T17:22:38.166Z,1.63
2023-10-15T17:25:05.614Z,1.73
2023-10-15T17:27:34.083Z,3.08
2023-10-15T17:30:17.748Z,4.28
2023-10-15T17:32:45.737Z,3.72
2023-10-15T17:35:12.796Z,2.28
2023-10-15T17:37:40.196Z,1.63
2023-10-15T17:40:07.587Z,2.53
2023-10-15T17:42:37.165Z,4.40
2023-10-15T17:45:04.718Z,1.70
2023-10-15T17:47:31.613Z,0.98
2023-10-15T17:49:58.340Z,2.05
2023-10-15T17:52:24.970Z,2.65
2023-10-15T17:54:52.060Z,2.28
2023-10-15T17:57:18.705Z,6.88
2023-10-15T17:59:45.462Z,3.72
2023-10-15T18:02:12.082Z,3.00
2023-10-15T18:04:38.841Z,2.58
2023-10-15T18:07:05.749Z,1.77
2023-10-15T18:09:35.251Z,1.48
2023-10-15T18:12:02.769Z,2.30
2023-10-15T18:14:30.070Z,2.28
2023-10-15T18:16:57.221Z,2.72
2023-10-15T18:19:24.078Z,2.47
2023-10-15T18:21:50.754Z,2.05
2023-10-15T18:24:17.494Z,1.90
2023-10-15T18:26:44.295Z,1.83
2023-10-15T18:29:10.968Z,1.33
2023-10-15T18:31:37.714Z,1.65
2023-10-15T18:34:04.578Z,1.88
2023-10-15T18:36:33.824Z,1.50
2023-10-15T18:39:00.658Z,1.45
2023-10-15T18:41:27.421Z,1.30
2023-10-15T18:43:54.785Z,1.40
2023-10-15T18:46:21.476Z,1.40
2023-10-15T18:48:48.205Z,2.20
2023-10-15T18:51:35.217Z,1.95
2023-10-15T18:54:01.504Z,1.48
2023-10-15T18:56:30.367Z,1.20
2023-10-15T18:59:02.478Z,1.50
2023-10-15T19:01:29.468Z,1.08
2023-10-15T19:03:56.320Z,1.00
2023-10-15T19:06:23.011Z,1.20
2023-10-15T19:08:49.722Z,1.65
2023-10-15T19:11:16.429Z,1.48
2023-10-15T19:13:43.738Z,2.50
2023-10-15T19:16:13.257Z,2.22
2023-10-15T19:18:43.662Z,2.65
2023-10-15T19:21:10.479Z,2.20
2023-10-15T19:23:37.130Z,2.50
2023-10-15T19:26:07.983Z,2.00
2023-10-15T19:28:38.820Z,1.80
2023-10-15T19:31:06.346Z,2.05
2023-10-15T19:33:33.418Z,2.83
2023-10-15T19:36:01.853Z,2.15
2023-10-15T19:38:31.103Z,2.55
2023-10-15T19:40:59.684Z,3.33
2023-10-15T19:43:29.616Z,2.25
2023-10-15T19:45:57.441Z,2.55
2023-10-15T19:48:25.092Z,2.90
2023-10-15T19:50:51.962Z,2.55
2023-10-15T19:53:18.666Z,2.47
2023-10-15T19:55:45.347Z,3.22
2023-10-15T19:58:12.130Z,2.75
2023-10-15T20:00:40.924Z,2.58
2023-10-15T20:03:09.603Z,1.75
2023-10-15T20:05:36.732Z,2.00
2023-10-15T20:08:03.594Z,2.70
2023-10-15T20:10:32.185Z,1.92
2023-10-15T20:12:59.453Z,2.17
2023-10-15T20:15:27.792Z,2.35
2023-10-15T20:17:55.280Z,3.05
2023-10-15T20:20:22.114Z,3.95
2023-10-15T20:22:48.770Z,3.80
2023-10-15T20:25:17.204Z,4.07
2023-10-15T20:27:43.989Z,2.95
2023-10-15T20:30:13.900Z,2.47
2023-10-15T20:35:12.362Z,4.05
2023-10-15T20:37:40.826Z,4.95
2023-10-15T20:40:12.445Z,5.10
2023-10-15T20:42:39.876Z,4.20
2023-10-15T20:45:10.752Z,3.88
2023-10-15T20:47:38.990Z,3.13
2023-10-15T20:50:09.075Z,3.10
2023-10-15T20:52:40.079Z,3.42
2023-10-15T20:55:07.367Z,3.30
2023-10-15T20:57:34.622Z,3.25
2023-10-15T21:00:01.899Z,2.60
2023-10-15T21:02:29.413Z,2.97
2023-10-15T21:04:56.302Z,2.90
2023-10-15T21:07:23.834Z,2.95
2023-10-15T21:09:50.742Z,2.58
2023-10-15T21:12:19.693Z,3.10
2023-10-15T21:14:46.286Z,3.00
2023-10-15T21:17:14.112Z,2.40
2023-10-15T21:19:40.847Z,2.42
2023-10-15T21:22:07.580Z,2.33
2023-10-15T21:24:36.410Z,2.15
2023-10-15T21:27:03.086Z,1.90
2023-10-15T21:29:30.637Z,1.92
2023-10-15T21:31:57.247Z,1.90
2023-10-15T21:34:26.075Z,2.28
2023-10-15T21:36:52.976Z,1.85
2023-10-15T21:39:23.592Z,2.38
2023-10-15T21:41:51.926Z,1.92
2023-10-15T21:44:20.200Z,2.00
2023-10-15T21:46:46.985Z,2.47
2023-10-15T21:49:14.436Z,2.17
2023-10-15T21:51:41.658Z,2.00
2023-10-15T21:54:09.110Z,2.05
2023-10-15T21:56:35.929Z,2.17
2023-10-15T21:59:02.566Z,1.77
2023-10-15T22:01:29.303Z,2.00
2023-10-15T22:03:56.192Z,1.98
2023-10-15T22:06:22.876Z,1.90
2023-10-15T22:08:50.867Z,1.67
2023-10-15T22:11:18.136Z,3.03
2023-10-15T22:13:44.874Z,2.20
2023-10-15T22:16:11.637Z,2.40
2023-10-15T22:18:40.316Z,1.90
2023-10-15T22:21:07.656Z,2.78
2023-10-15T22:23:40.651Z,2.25
2023-10-15T22:26:08.395Z,3.13
2023-10-15T22:28:35.205Z,2.10
2023-10-15T22:31:08.243Z,2.58
2023-10-15T22:33:38.612Z,2.85
2023-10-15T22:36:08.746Z,2.50
2023-10-15T22:38:35.854Z,2.20
2023-10-15T22:41:02.435Z,2.83
2023-10-15T22:43:30.616Z,2.83
2023-10-15T22:45:57.206Z,2.28
2023-10-15T22:48:27.182Z,2.00
2023-10-15T22:50:54.614Z,2.55
2023-10-15T22:53:21.206Z,2.05
2023-10-15T22:55:47.844Z,1.98
2023-10-15T22:58:14.932Z,2.45
2023-10-15T23:00:41.744Z,2.63
2023-10-15T23:03:10.844Z,2.20
2023-10-15T23:05:38.885Z,2.45
2023-10-15T23:08:06.667Z,2.05
2023-10-15T23:10:36.711Z,1.95
2023-10-15T23:13:03.424Z,2.55
2023-10-15T23:15:39.470Z,2.50
2023-10-15T23:18:07.881Z,2.70
2023-10-15T23:20:41.336Z,2.33
2023-10-15T23:23:09.213Z,2.67
2023-10-15T23:25:36.249Z,2.35
2023-10-15T23:28:12.387Z,2.22
2023-10-15T23:30:42.535Z,2.10
2023-10-15T23:33:11.007Z,2.63
2023-10-15T23:35:38.715Z,2.13
2023-10-15T23:38:08.317Z,2.30
2023-10-15T23:40:36.022Z,2.53
2023-10-15T23:43:05.929Z,2.10
2023-10-15T23:45:33.140Z,2.05
2023-10-15T23:48:12.368Z,1.88
2023-10-15T23:50:46.751Z,2.17
2023-10-15T23:53:20.401Z,2.20
2023-10-15T23:55:48.170Z,1.90
2023-10-15T23:58:14.809Z,2.08
